sensor_id;sensor_type;location;lat;lon;timestamp;P1;durP1;ratioP1;P2;durP2;ratioP2
62479;SDS011;48526;48.846;2.322;2022-09-11T00:00:52;8.50;;;7.25;;
62479;SDS011;48526;48.846;2.322;2022-09-11T00:03:18;11.00;;;10.25;;
62479;SDS011;48526;48.846;2.322;2022-09-11T00:05:45;11.00;;;10.00;;
62479;SDS011;48526;48.846;2.322;2022-09-11T00:08:12;11.00;;;10.75;;
62479;SDS011;48526;48.846;2.322;2022-09-11T00:10:39;13.50;;;11.50;;
62479;SDS011;48526;48.846;2.322;2022-09-11T00:13:07;12.00;;;10.50;;
62479;SDS011;48526;48.846;2.322;2022-09-11T00:15:37;14.50;;;10.00;;
62479;SDS011;48526;48.846;2.322;2022-09-11T00:18:06;12.25;;;10.50;;
62479;SDS011;48526;48.846;2.322;2022-09-11T00:20:33;17.50;;;10.75;;
62479;SDS011;48526;48.846;2.322;2022-09-11T00:22:59;15.25;;;10.75;;
62479;SDS011;48526;48.846;2.322;2022-09-11T00:25:28;9.00;;;8.25;;
62479;SDS011;48526;48.846;2.322;2022-09-11T00:28:00;14.25;;;11.25;;
62479;SDS011;48526;48.846;2.322;2022-09-11T00:30:25;14.00;;;14.00;;
62479;SDS011;48526;48.846;2.322;2022-09-11T00:32:51;12.00;;;10.50;;
62479;SDS011;48526;48.846;2.322;2022-09-11T00:35:17;14.50;;;11.00;;
62479;SDS011;48526;48.846;2.322;2022-09-11T00:37:42;11.75;;;11.00;;
62479;SDS011;48526;48.846;2.322;2022-09-11T00:40:07;14.00;;;12.75;;
62479;SDS011;48526;48.846;2.322;2022-09-11T00:42:33;12.25;;;9.25;;
62479;SDS011;48526;48.846;2.322;2022-09-11T00:44:59;11.50;;;11.00;;
62479;SDS011;48526;48.846;2.322;2022-09-11T00:47:27;14.25;;;10.75;;
62479;SDS011;48526;48.846;2.322;2022-09-11T00:49:54;10.00;;;8.25;;
62479;SDS011;48526;48.846;2.322;2022-09-11T00:52:28;10.50;;;10.50;;
62479;SDS011;48526;48.846;2.322;2022-09-11T00:55:05;14.50;;;10.00;;
62479;SDS011;48526;48.846;2.322;2022-09-11T00:57:37;9.00;;;9.00;;
62479;SDS011;48526;48.846;2.322;2022-09-11T01:00:15;10.00;;;8.25;;
62479;SDS011;48526;48.846;2.322;2022-09-11T01:02:41;9.00;;;7.75;;
62479;SDS011;48526;48.846;2.322;2022-09-11T01:05:11;13.75;;;9.25;;
62479;SDS011;48526;48.846;2.322;2022-09-11T01:07:37;10.00;;;10.00;;
62479;SDS011;48526;48.846;2.322;2022-09-11T01:10:03;8.00;;;8.00;;
62479;SDS011;48526;48.846;2.322;2022-09-11T01:31:08;10.75;;;9.50;;
62479;SDS011;48526;48.846;2.322;2022-09-11T01:33:42;9.00;;;9.00;;
62479;SDS011;48526;48.846;2.322;2022-09-11T01:36:16;13.25;;;10.75;;
62479;SDS011;48526;48.846;2.322;2022-09-11T01:38:49;10.25;;;8.50;;
62479;SDS011;48526;48.846;2.322;2022-09-11T01:41:20;11.50;;;10.25;;
62479;SDS011;48526;48.846;2.322;2022-09-11T01:44:02;11.50;;;10.50;;
62479;SDS011;48526;48.846;2.322;2022-09-11T01:46:31;16.25;;;13.25;;
62479;SDS011;48526;48.846;2.322;2022-09-11T01:49:02;10.75;;;10.00;;
62479;SDS011;48526;48.846;2.322;2022-09-11T01:51:35;11.50;;;11.50;;
62479;SDS011;48526;48.846;2.322;2022-09-11T01:54:02;11.25;;;10.50;;
62479;SDS011;48526;48.846;2.322;2022-09-11T01:56:33;12.25;;;11.75;;
62479;SDS011;48526;48.846;2.322;2022-09-11T01:59:03;15.00;;;12.75;;
62479;SDS011;48526;48.846;2.322;2022-09-11T02:01:32;12.25;;;11.25;;
62479;SDS011;48526;48.846;2.322;2022-09-11T02:04:04;12.00;;;9.75;;
62479;SDS011;48526;48.846;2.322;2022-09-11T02:06:33;12.75;;;9.75;;
62479;SDS011;48526;48.846;2.322;2022-09-11T02:09:08;14.75;;;10.50;;
62479;SDS011;48526;48.846;2.322;2022-09-11T02:11:36;13.50;;;11.25;;
62479;SDS011;48526;48.846;2.322;2022-09-11T02:14:16;14.50;;;11.00;;
62479;SDS011;48526;48.846;2.322;2022-09-11T02:17:09;11.50;;;9.50;;
62479;SDS011;48526;48.846;2.322;2022-09-11T02:19:39;12.75;;;11.00;;
62479;SDS011;48526;48.846;2.322;2022-09-11T02:22:05;10.25;;;10.00;;
62479;SDS011;48526;48.846;2.322;2022-09-11T02:24:31;13.25;;;12.00;;
62479;SDS011;48526;48.846;2.322;2022-09-11T02:26:59;13.00;;;11.25;;
62479;SDS011;48526;48.846;2.322;2022-09-11T02:29:26;15.50;;;9.25;;
62479;SDS011;48526;48.846;2.322;2022-09-11T02:31:51;11.25;;;9.00;;
62479;SDS011;48526;48.846;2.322;2022-09-11T02:34:19;11.50;;;11.00;;
62479;SDS011;48526;48.846;2.322;2022-09-11T02:37:00;14.50;;;13.25;;
62479;SDS011;48526;48.846;2.322;2022-09-11T02:39:39;12.00;;;9.50;;
62479;SDS011;48526;48.846;2.322;2022-09-11T02:42:36;11.50;;;9.25;;
62479;SDS011;48526;48.846;2.322;2022-09-11T02:58:21;15.75;;;14.50;;
62479;SDS011;48526;48.846;2.322;2022-09-11T03:00:57;11.75;;;9.50;;
62479;SDS011;48526;48.846;2.322;2022-09-11T03:03:25;11.75;;;10.50;;
62479;SDS011;48526;48.846;2.322;2022-09-11T03:05:51;11.25;;;10.50;;
62479;SDS011;48526;48.846;2.322;2022-09-11T03:08:16;19.25;;;16.75;;
62479;SDS011;48526;48.846;2.322;2022-09-11T03:10:43;11.75;;;10.75;;
62479;SDS011;48526;48.846;2.322;2022-09-11T03:13:10;11.75;;;9.50;;
62479;SDS011;48526;48.846;2.322;2022-09-11T03:15:36;16.00;;;13.00;;
62479;SDS011;48526;48.846;2.322;2022-09-11T03:18:03;14.25;;;12.00;;
62479;SDS011;48526;48.846;2.322;2022-09-11T03:20:29;14.00;;;13.50;;
62479;SDS011;48526;48.846;2.322;2022-09-11T03:22:54;16.00;;;13.00;;
62479;SDS011;48526;48.846;2.322;2022-09-11T03:25:20;14.25;;;12.25;;
62479;SDS011;48526;48.846;2.322;2022-09-11T03:27:47;12.75;;;12.25;;
62479;SDS011;48526;48.846;2.322;2022-09-11T03:30:13;18.25;;;13.25;;
62479;SDS011;48526;48.846;2.322;2022-09-11T03:32:38;9.25;;;9.25;;
62479;SDS011;48526;48.846;2.322;2022-09-11T03:35:03;12.25;;;11.00;;
62479;SDS011;48526;48.846;2.322;2022-09-11T03:37:29;14.00;;;12.50;;
62479;SDS011;48526;48.846;2.322;2022-09-11T03:39:54;13.75;;;12.00;;
62479;SDS011;48526;48.846;2.322;2022-09-11T03:42:20;2.75;;;2.50;;
62479;SDS011;48526;48.846;2.322;2022-09-11T03:44:45;16.25;;;15.00;;
62479;SDS011;48526;48.846;2.322;2022-09-11T03:47:11;16.00;;;14.25;;
62479;SDS011;48526;48.846;2.322;2022-09-11T03:49:37;14.50;;;14.00;;
62479;SDS011;48526;48.846;2.322;2022-09-11T03:52:02;15.00;;;13.00;;
62479;SDS011;48526;48.846;2.322;2022-09-11T03:54:28;13.75;;;13.00;;
62479;SDS011;48526;48.846;2.322;2022-09-11T03:56:53;14.25;;;14.25;;
62479;SDS011;48526;48.846;2.322;2022-09-11T03:59:19;13.25;;;13.25;;
62479;SDS011;48526;48.846;2.322;2022-09-11T04:01:44;11.75;;;11.75;;
62479;SDS011;48526;48.846;2.322;2022-09-11T04:04:10;14.00;;;13.50;;
62479;SDS011;48526;48.846;2.322;2022-09-11T04:06:36;14.50;;;14.50;;
62479;SDS011;48526;48.846;2.322;2022-09-11T04:09:01;17.00;;;15.00;;
62479;SDS011;48526;48.846;2.322;2022-09-11T04:11:27;15.00;;;12.25;;
62479;SDS011;48526;48.846;2.322;2022-09-11T04:13:52;12.00;;;12.00;;
62479;SDS011;48526;48.846;2.322;2022-09-11T04:16:18;14.00;;;14.00;;
62479;SDS011;48526;48.846;2.322;2022-09-11T04:18:44;14.25;;;13.25;;
62479;SDS011;48526;48.846;2.322;2022-09-11T04:21:11;13.25;;;13.00;;
62479;SDS011;48526;48.846;2.322;2022-09-11T04:23:39;14.00;;;12.00;;
62479;SDS011;48526;48.846;2.322;2022-09-11T04:26:15;11.75;;;10.25;;
62479;SDS011;48526;48.846;2.322;2022-09-11T04:28:42;14.50;;;14.50;;
62479;SDS011;48526;48.846;2.322;2022-09-11T04:31:08;16.25;;;13.75;;
62479;SDS011;48526;48.846;2.322;2022-09-11T04:33:34;15.25;;;10.00;;
62479;SDS011;48526;48.846;2.322;2022-09-11T04:36:14;14.50;;;11.25;;
62479;SDS011;48526;48.846;2.322;2022-09-11T04:38:44;14.50;;;14.25;;
62479;SDS011;48526;48.846;2.322;2022-09-11T04:41:09;11.50;;;10.00;;
62479;SDS011;48526;48.846;2.322;2022-09-11T04:43:37;13.50;;;11.00;;
62479;SDS011;48526;48.846;2.322;2022-09-11T04:46:08;13.50;;;11.75;;
62479;SDS011;48526;48.846;2.322;2022-09-11T04:48:35;14.25;;;14.00;;
62479;SDS011;48526;48.846;2.322;2022-09-11T04:51:06;13.50;;;13.00;;
62479;SDS011;48526;48.846;2.322;2022-09-11T04:53:32;12.50;;;12.50;;
62479;SDS011;48526;48.846;2.322;2022-09-11T04:56:02;10.00;;;9.00;;
62479;SDS011;48526;48.846;2.322;2022-09-11T04:58:37;19.00;;;14.25;;
62479;SDS011;48526;48.846;2.322;2022-09-11T05:01:08;16.25;;;12.75;;
62479;SDS011;48526;48.846;2.322;2022-09-11T05:03:34;13.75;;;11.75;;
62479;SDS011;48526;48.846;2.322;2022-09-11T05:06:04;13.00;;;13.00;;
62479;SDS011;48526;48.846;2.322;2022-09-11T05:08:30;13.00;;;11.00;;
62479;SDS011;48526;48.846;2.322;2022-09-11T05:10:57;15.75;;;12.25;;
62479;SDS011;48526;48.846;2.322;2022-09-11T05:13:24;17.50;;;13.75;;
62479;SDS011;48526;48.846;2.322;2022-09-11T05:15:49;14.00;;;13.50;;
62479;SDS011;48526;48.846;2.322;2022-09-11T05:18:15;12.75;;;12.75;;
62479;SDS011;48526;48.846;2.322;2022-09-11T05:20:40;18.00;;;12.50;;
62479;SDS011;48526;48.846;2.322;2022-09-11T05:23:06;18.00;;;15.00;;
62479;SDS011;48526;48.846;2.322;2022-09-11T05:25:31;14.75;;;10.75;;
62479;SDS011;48526;48.846;2.322;2022-09-11T05:27:57;14.75;;;13.75;;
62479;SDS011;48526;48.846;2.322;2022-09-11T05:30:25;9.00;;;8.00;;
62479;SDS011;48526;48.846;2.322;2022-09-11T05:32:53;15.50;;;11.25;;
62479;SDS011;48526;48.846;2.322;2022-09-11T05:35:24;16.25;;;13.75;;
62479;SDS011;48526;48.846;2.322;2022-09-11T05:37:50;15.75;;;13.00;;
62479;SDS011;48526;48.846;2.322;2022-09-11T05:40:15;13.00;;;11.25;;
62479;SDS011;48526;48.846;2.322;2022-09-11T05:42:41;11.00;;;11.00;;
62479;SDS011;48526;48.846;2.322;2022-09-11T05:45:06;16.75;;;16.75;;
62479;SDS011;48526;48.846;2.322;2022-09-11T05:47:31;17.75;;;15.75;;
62479;SDS011;48526;48.846;2.322;2022-09-11T05:49:57;15.00;;;14.00;;
62479;SDS011;48526;48.846;2.322;2022-09-11T05:52:23;15.25;;;14.75;;
62479;SDS011;48526;48.846;2.322;2022-09-11T05:54:48;14.75;;;11.50;;
62479;SDS011;48526;48.846;2.322;2022-09-11T05:57:14;16.25;;;16.25;;
62479;SDS011;48526;48.846;2.322;2022-09-11T05:59:39;17.00;;;13.50;;
62479;SDS011;48526;48.846;2.322;2022-09-11T06:02:05;12.00;;;8.00;;
62479;SDS011;48526;48.846;2.322;2022-09-11T06:04:30;15.00;;;13.25;;
62479;SDS011;48526;48.846;2.322;2022-09-11T06:06:56;18.00;;;17.00;;
62479;SDS011;48526;48.846;2.322;2022-09-11T06:09:21;16.25;;;15.25;;
62479;SDS011;48526;48.846;2.322;2022-09-11T06:11:46;16.50;;;14.50;;
62479;SDS011;48526;48.846;2.322;2022-09-11T06:14:12;17.00;;;17.00;;
62479;SDS011;48526;48.846;2.322;2022-09-11T06:16:37;16.75;;;16.00;;
62479;SDS011;48526;48.846;2.322;2022-09-11T06:19:03;17.25;;;15.25;;
62479;SDS011;48526;48.846;2.322;2022-09-11T06:21:28;18.25;;;17.00;;
62479;SDS011;48526;48.846;2.322;2022-09-11T06:23:54;17.50;;;15.00;;
62479;SDS011;48526;48.846;2.322;2022-09-11T06:26:21;19.50;;;14.50;;
62479;SDS011;48526;48.846;2.322;2022-09-11T06:28:48;20.00;;;18.25;;
62479;SDS011;48526;48.846;2.322;2022-09-11T06:31:15;19.50;;;17.75;;
62479;SDS011;48526;48.846;2.322;2022-09-11T06:33:43;20.50;;;19.50;;
62479;SDS011;48526;48.846;2.322;2022-09-11T06:36:13;17.25;;;17.25;;
62479;SDS011;48526;48.846;2.322;2022-09-11T06:38:43;19.25;;;17.50;;
62479;SDS011;48526;48.846;2.322;2022-09-11T06:41:09;19.00;;;17.75;;
62479;SDS011;48526;48.846;2.322;2022-09-11T06:43:38;23.25;;;17.25;;
62479;SDS011;48526;48.846;2.322;2022-09-11T06:46:04;22.00;;;17.00;;
62479;SDS011;48526;48.846;2.322;2022-09-11T06:48:31;20.00;;;18.75;;
62479;SDS011;48526;48.846;2.322;2022-09-11T06:50:56;19.50;;;16.75;;
62479;SDS011;48526;48.846;2.322;2022-09-11T06:53:26;26.50;;;23.75;;
62479;SDS011;48526;48.846;2.322;2022-09-11T06:55:52;17.25;;;16.00;;
62479;SDS011;48526;48.846;2.322;2022-09-11T06:58:17;19.00;;;17.25;;
62479;SDS011;48526;48.846;2.322;2022-09-11T07:00:42;22.75;;;20.75;;
62479;SDS011;48526;48.846;2.322;2022-09-11T07:03:09;22.75;;;19.75;;
62479;SDS011;48526;48.846;2.322;2022-09-11T07:05:35;23.75;;;19.75;;
62479;SDS011;48526;48.846;2.322;2022-09-11T07:08:00;22.25;;;20.25;;
62479;SDS011;48526;48.846;2.322;2022-09-11T07:10:35;21.75;;;18.75;;
62479;SDS011;48526;48.846;2.322;2022-09-11T07:13:03;19.75;;;18.25;;
62479;SDS011;48526;48.846;2.322;2022-09-11T07:15:28;21.50;;;17.50;;
62479;SDS011;48526;48.846;2.322;2022-09-11T07:17:56;24.25;;;19.75;;
62479;SDS011;48526;48.846;2.322;2022-09-11T07:20:21;18.25;;;14.25;;
62479;SDS011;48526;48.846;2.322;2022-09-11T07:22:47;21.75;;;17.75;;
62479;SDS011;48526;48.846;2.322;2022-09-11T07:25:12;19.25;;;16.50;;
62479;SDS011;48526;48.846;2.322;2022-09-11T07:27:38;23.75;;;19.50;;
62479;SDS011;48526;48.846;2.322;2022-09-11T07:30:04;25.25;;;19.75;;
62479;SDS011;48526;48.846;2.322;2022-09-11T07:32:29;21.50;;;19.75;;
62479;SDS011;48526;48.846;2.322;2022-09-11T07:34:55;22.75;;;19.75;;
62479;SDS011;48526;48.846;2.322;2022-09-11T07:37:21;17.75;;;16.75;;
62479;SDS011;48526;48.846;2.322;2022-09-11T07:39:46;19.25;;;18.75;;
62479;SDS011;48526;48.846;2.322;2022-09-11T07:42:11;22.50;;;20.25;;
62479;SDS011;48526;48.846;2.322;2022-09-11T07:44:37;25.75;;;21.50;;
62479;SDS011;48526;48.846;2.322;2022-09-11T07:47:02;25.00;;;22.25;;
62479;SDS011;48526;48.846;2.322;2022-09-11T07:49:28;21.75;;;19.00;;
62479;SDS011;48526;48.846;2.322;2022-09-11T07:51:54;22.75;;;21.00;;
62479;SDS011;48526;48.846;2.322;2022-09-11T07:54:19;21.75;;;16.75;;
62479;SDS011;48526;48.846;2.322;2022-09-11T07:56:45;21.50;;;19.75;;
62479;SDS011;48526;48.846;2.322;2022-09-11T07:59:11;19.50;;;17.25;;
62479;SDS011;48526;48.846;2.322;2022-09-11T08:01:36;18.75;;;18.25;;
62479;SDS011;48526;48.846;2.322;2022-09-11T08:04:03;23.50;;;20.00;;
62479;SDS011;48526;48.846;2.322;2022-09-11T08:06:31;21.50;;;20.25;;
62479;SDS011;48526;48.846;2.322;2022-09-11T08:08:59;22.25;;;19.50;;
62479;SDS011;48526;48.846;2.322;2022-09-11T08:11:30;22.00;;;19.00;;
62479;SDS011;48526;48.846;2.322;2022-09-11T08:13:56;19.25;;;16.25;;
62479;SDS011;48526;48.846;2.322;2022-09-11T08:16:25;19.75;;;17.75;;
62479;SDS011;48526;48.846;2.322;2022-09-11T08:18:51;19.75;;;17.00;;
62479;SDS011;48526;48.846;2.322;2022-09-11T08:21:17;20.25;;;17.00;;
62479;SDS011;48526;48.846;2.322;2022-09-11T08:23:43;21.00;;;20.75;;
62479;SDS011;48526;48.846;2.322;2022-09-11T08:26:23;20.00;;;17.50;;
62479;SDS011;48526;48.846;2.322;2022-09-11T08:28:50;22.00;;;21.25;;
62479;SDS011;48526;48.846;2.322;2022-09-11T08:31:18;26.75;;;21.25;;
62479;SDS011;48526;48.846;2.322;2022-09-11T08:33:45;29.00;;;23.75;;
62479;SDS011;48526;48.846;2.322;2022-09-11T08:36:11;23.25;;;22.75;;
62479;SDS011;48526;48.846;2.322;2022-09-11T08:38:40;24.25;;;21.00;;
62479;SDS011;48526;48.846;2.322;2022-09-11T08:41:10;22.75;;;20.00;;
62479;SDS011;48526;48.846;2.322;2022-09-11T08:43:46;24.75;;;19.75;;
62479;SDS011;48526;48.846;2.322;2022-09-11T08:46:15;19.25;;;17.25;;
62479;SDS011;48526;48.846;2.322;2022-09-11T08:48:51;25.75;;;22.75;;
62479;SDS011;48526;48.846;2.322;2022-09-11T08:51:21;20.75;;;18.50;;
62479;SDS011;48526;48.846;2.322;2022-09-11T08:53:52;23.50;;;21.25;;
62479;SDS011;48526;48.846;2.322;2022-09-11T08:56:19;20.75;;;20.00;;
62479;SDS011;48526;48.846;2.322;2022-09-11T09:04:02;18.75;;;18.75;;
62479;SDS011;48526;48.846;2.322;2022-09-11T09:12:11;24.50;;;21.50;;
62479;SDS011;48526;48.846;2.322;2022-09-11T09:17:56;23.75;;;20.25;;
62479;SDS011;48526;48.846;2.322;2022-09-11T09:20:45;20.00;;;18.50;;
62479;SDS011;48526;48.846;2.322;2022-09-11T09:23:27;21.75;;;20.75;;
62479;SDS011;48526;48.846;2.322;2022-09-11T09:26:00;25.25;;;21.50;;
62479;SDS011;48526;48.846;2.322;2022-09-11T09:28:47;24.25;;;23.00;;
62479;SDS011;48526;48.846;2.322;2022-09-11T09:31:14;26.50;;;23.75;;
62479;SDS011;48526;48.846;2.322;2022-09-11T09:33:58;25.75;;;22.00;;
62479;SDS011;48526;48.846;2.322;2022-09-11T09:36:29;28.25;;;23.50;;
62479;SDS011;48526;48.846;2.322;2022-09-11T09:38:57;23.50;;;22.25;;
62479;SDS011;48526;48.846;2.322;2022-09-11T09:47:01;23.25;;;19.25;;
62479;SDS011;48526;48.846;2.322;2022-09-11T09:49:28;19.25;;;16.50;;
62479;SDS011;48526;48.846;2.322;2022-09-11T09:51:56;21.50;;;20.00;;
62479;SDS011;48526;48.846;2.322;2022-09-11T09:54:23;20.75;;;18.25;;
62479;SDS011;48526;48.846;2.322;2022-09-11T09:57:00;20.00;;;18.50;;
62479;SDS011;48526;48.846;2.322;2022-09-11T09:59:50;19.00;;;16.50;;
62479;SDS011;48526;48.846;2.322;2022-09-11T10:03:10;18.25;;;17.00;;
62479;SDS011;48526;48.846;2.322;2022-09-11T10:05:45;14.25;;;13.75;;
62479;SDS011;48526;48.846;2.322;2022-09-11T10:08:37;18.25;;;16.00;;
62479;SDS011;48526;48.846;2.322;2022-09-11T10:13:42;14.75;;;14.25;;
62479;SDS011;48526;48.846;2.322;2022-09-11T10:16:19;14.75;;;13.25;;
62479;SDS011;48526;48.846;2.322;2022-09-11T10:19:02;16.50;;;13.50;;
62479;SDS011;48526;48.846;2.322;2022-09-11T10:21:30;16.75;;;15.50;;
62479;SDS011;48526;48.846;2.322;2022-09-11T10:24:18;14.50;;;14.50;;
62479;SDS011;48526;48.846;2.322;2022-09-11T10:26:55;14.75;;;12.50;;
62479;SDS011;48526;48.846;2.322;2022-09-11T10:29:22;13.25;;;12.25;;
62479;SDS011;48526;48.846;2.322;2022-09-11T10:31:59;11.25;;;11.25;;
62479;SDS011;48526;48.846;2.322;2022-09-11T10:34:36;8.50;;;7.50;;
62479;SDS011;48526;48.846;2.322;2022-09-11T10:37:07;11.00;;;10.75;;
62479;SDS011;48526;48.846;2.322;2022-09-11T10:39:48;14.50;;;13.00;;
62479;SDS011;48526;48.846;2.322;2022-09-11T10:42:15;11.25;;;10.25;;
62479;SDS011;48526;48.846;2.322;2022-09-11T10:44:43;11.50;;;10.75;;
62479;SDS011;48526;48.846;2.322;2022-09-11T10:47:15;11.75;;;10.25;;
62479;SDS011;48526;48.846;2.322;2022-09-11T10:49:43;8.25;;;7.50;;
62479;SDS011;48526;48.846;2.322;2022-09-11T10:57:27;11.75;;;9.00;;
62479;SDS011;48526;48.846;2.322;2022-09-11T11:00:20;12.25;;;11.25;;
62479;SDS011;48526;48.846;2.322;2022-09-11T11:03:20;10.25;;;10.00;;
62479;SDS011;48526;48.846;2.322;2022-09-11T11:17:50;6.00;;;6.00;;
62479;SDS011;48526;48.846;2.322;2022-09-11T11:20:29;10.75;;;10.75;;
62479;SDS011;48526;48.846;2.322;2022-09-11T11:23:08;9.50;;;9.00;;
62479;SDS011;48526;48.846;2.322;2022-09-11T11:28:56;10.50;;;10.50;;
62479;SDS011;48526;48.846;2.322;2022-09-11T11:31:36;9.00;;;9.00;;
62479;SDS011;48526;48.846;2.322;2022-09-11T11:39:53;25.75;;;24.25;;
62479;SDS011;48526;48.846;2.322;2022-09-11T11:42:33;10.25;;;8.25;;
62479;SDS011;48526;48.846;2.322;2022-09-11T11:45:07;8.50;;;8.50;;
62479;SDS011;48526;48.846;2.322;2022-09-11T11:47:40;19.50;;;19.50;;
62479;SDS011;48526;48.846;2.322;2022-09-11T11:50:10;7.75;;;6.00;;
62479;SDS011;48526;48.846;2.322;2022-09-11T11:53:11;7.50;;;7.25;;
62479;SDS011;48526;48.846;2.322;2022-09-11T11:56:05;9.00;;;8.00;;
62479;SDS011;48526;48.846;2.322;2022-09-11T11:58:39;7.00;;;7.00;;
62479;SDS011;48526;48.846;2.322;2022-09-11T12:01:33;9.75;;;7.50;;
62479;SDS011;48526;48.846;2.322;2022-09-11T12:04:00;9.00;;;8.25;;
62479;SDS011;48526;48.846;2.322;2022-09-11T12:06:34;10.50;;;10.25;;
62479;SDS011;48526;48.846;2.322;2022-09-11T12:09:03;9.00;;;8.00;;
62479;SDS011;48526;48.846;2.322;2022-09-11T12:11:30;7.00;;;6.00;;
62479;SDS011;48526;48.846;2.322;2022-09-11T12:14:01;7.50;;;7.50;;
62479;SDS011;48526;48.846;2.322;2022-09-11T12:16:27;7.00;;;6.00;;
62479;SDS011;48526;48.846;2.322;2022-09-11T12:19:06;7.00;;;6.75;;
62479;SDS011;48526;48.846;2.322;2022-09-11T12:22:03;8.75;;;8.00;;
62479;SDS011;48526;48.846;2.322;2022-09-11T12:24:52;7.75;;;7.75;;
62479;SDS011;48526;48.846;2.322;2022-09-11T12:35:17;8.75;;;6.75;;
62479;SDS011;48526;48.846;2.322;2022-09-11T12:37:46;7.50;;;7.00;;
62479;SDS011;48526;48.846;2.322;2022-09-11T12:40:21;10.00;;;8.25;;
62479;SDS011;48526;48.846;2.322;2022-09-11T12:42:55;8.25;;;7.25;;
62479;SDS011;48526;48.846;2.322;2022-09-11T12:45:41;7.25;;;7.25;;
62479;SDS011;48526;48.846;2.322;2022-09-11T12:48:08;8.50;;;8.50;;
62479;SDS011;48526;48.846;2.322;2022-09-11T12:50:38;7.25;;;7.25;;
62479;SDS011;48526;48.846;2.322;2022-09-11T12:53:05;8.00;;;6.75;;
62479;SDS011;48526;48.846;2.322;2022-09-11T12:55:41;9.00;;;8.25;;
62479;SDS011;48526;48.846;2.322;2022-09-11T12:58:24;6.75;;;6.25;;
62479;SDS011;48526;48.846;2.322;2022-09-11T13:01:29;8.00;;;7.00;;
62479;SDS011;48526;48.846;2.322;2022-09-11T13:03:48;9.00;;;8.00;;
62479;SDS011;48526;48.846;2.322;2022-09-11T13:14:50;7.00;;;6.50;;
62479;SDS011;48526;48.846;2.322;2022-09-11T13:17:22;7.50;;;6.00;;
62479;SDS011;48526;48.846;2.322;2022-09-11T13:22:34;6.00;;;6.00;;
62479;SDS011;48526;48.846;2.322;2022-09-11T13:27:38;6.00;;;6.00;;
62479;SDS011;48526;48.846;2.322;2022-09-11T13:30:23;6.50;;;6.00;;
62479;SDS011;48526;48.846;2.322;2022-09-11T13:35:32;5.00;;;5.00;;
62479;SDS011;48526;48.846;2.322;2022-09-11T13:38:00;6.00;;;6.00;;
62479;SDS011;48526;48.846;2.322;2022-09-11T13:40:33;6.00;;;5.00;;
62479;SDS011;48526;48.846;2.322;2022-09-11T13:43:02;8.25;;;7.00;;
62479;SDS011;48526;48.846;2.322;2022-09-11T13:45:28;6.00;;;6.00;;
62479;SDS011;48526;48.846;2.322;2022-09-11T13:47:53;6.00;;;6.00;;
62479;SDS011;48526;48.846;2.322;2022-09-11T13:50:19;4.00;;;4.00;;
62479;SDS011;48526;48.846;2.322;2022-09-11T13:52:46;7.00;;;7.00;;
62479;SDS011;48526;48.846;2.322;2022-09-11T13:55:14;4.00;;;4.00;;
62479;SDS011;48526;48.846;2.322;2022-09-11T13:57:56;5.00;;;5.00;;
62479;SDS011;48526;48.846;2.322;2022-09-11T14:03:25;6.50;;;4.00;;
62479;SDS011;48526;48.846;2.322;2022-09-11T14:05:54;5.50;;;4.50;;
62479;SDS011;48526;48.846;2.322;2022-09-11T14:11:12;6.50;;;5.00;;
62479;SDS011;48526;48.846;2.322;2022-09-11T14:13:51;3.00;;;3.00;;
62479;SDS011;48526;48.846;2.322;2022-09-11T14:19:19;4.25;;;3.75;;
62479;SDS011;48526;48.846;2.322;2022-09-11T14:21:49;5.00;;;4.00;;
62479;SDS011;48526;48.846;2.322;2022-09-11T14:24:36;4.50;;;4.00;;
62479;SDS011;48526;48.846;2.322;2022-09-11T14:27:32;5.00;;;5.00;;
62479;SDS011;48526;48.846;2.322;2022-09-11T14:29:56;4.75;;;4.25;;
62479;SDS011;48526;48.846;2.322;2022-09-11T14:34:57;4.00;;;4.00;;
62479;SDS011;48526;48.846;2.322;2022-09-11T14:37:28;6.25;;;4.00;;
62479;SDS011;48526;48.846;2.322;2022-09-11T14:39:58;5.50;;;4.00;;
62479;SDS011;48526;48.846;2.322;2022-09-11T14:42:28;7.25;;;6.00;;
62479;SDS011;48526;48.846;2.322;2022-09-11T14:45:04;3.00;;;3.00;;
62479;SDS011;48526;48.846;2.322;2022-09-11T14:47:32;3.75;;;3.75;;
62479;SDS011;48526;48.846;2.322;2022-09-11T15:03:58;5.00;;;3.75;;
62479;SDS011;48526;48.846;2.322;2022-09-11T15:07:04;3.00;;;3.00;;
62479;SDS011;48526;48.846;2.322;2022-09-11T15:12:49;4.75;;;3.75;;
62479;SDS011;48526;48.846;2.322;2022-09-11T15:15:23;7.00;;;6.00;;
62479;SDS011;48526;48.846;2.322;2022-09-11T15:21:50;3.00;;;3.00;;
62479;SDS011;48526;48.846;2.322;2022-09-11T15:24:15;3.00;;;3.00;;
62479;SDS011;48526;48.846;2.322;2022-09-11T15:26:41;5.50;;;5.50;;
62479;SDS011;48526;48.846;2.322;2022-09-11T15:29:07;3.50;;;3.00;;
62479;SDS011;48526;48.846;2.322;2022-09-11T15:31:34;4.00;;;3.50;;
62479;SDS011;48526;48.846;2.322;2022-09-11T15:34:03;4.00;;;4.00;;
62479;SDS011;48526;48.846;2.322;2022-09-11T15:36:31;3.00;;;3.00;;
62479;SDS011;48526;48.846;2.322;2022-09-11T15:38:57;4.00;;;4.00;;
62479;SDS011;48526;48.846;2.322;2022-09-11T15:41:23;4.00;;;4.00;;
62479;SDS011;48526;48.846;2.322;2022-09-11T15:43:49;4.00;;;4.00;;
62479;SDS011;48526;48.846;2.322;2022-09-11T15:46:15;8.00;;;7.00;;
62479;SDS011;48526;48.846;2.322;2022-09-11T15:48:41;5.00;;;5.00;;
62479;SDS011;48526;48.846;2.322;2022-09-11T15:51:09;2.50;;;2.50;;
62479;SDS011;48526;48.846;2.322;2022-09-11T15:53:38;3.50;;;3.00;;
62479;SDS011;48526;48.846;2.322;2022-09-11T15:56:07;3.00;;;3.00;;
62479;SDS011;48526;48.846;2.322;2022-09-11T15:58:35;3.00;;;3.00;;
62479;SDS011;48526;48.846;2.322;2022-09-11T16:01:02;4.00;;;4.00;;
62479;SDS011;48526;48.846;2.322;2022-09-11T16:03:28;5.00;;;5.00;;
62479;SDS011;48526;48.846;2.322;2022-09-11T16:05:53;4.00;;;4.00;;
62479;SDS011;48526;48.846;2.322;2022-09-11T16:08:19;4.50;;;4.50;;
62479;SDS011;48526;48.846;2.322;2022-09-11T16:10:46;5.00;;;4.00;;
62479;SDS011;48526;48.846;2.322;2022-09-11T16:13:13;2.00;;;2.00;;
62479;SDS011;48526;48.846;2.322;2022-09-11T16:15:39;3.50;;;3.50;;
62479;SDS011;48526;48.846;2.322;2022-09-11T16:18:05;1.00;;;0.00;;
62479;SDS011;48526;48.846;2.322;2022-09-11T16:20:30;3.00;;;3.00;;
62479;SDS011;48526;48.846;2.322;2022-09-11T16:22:57;4.00;;;3.00;;
62479;SDS011;48526;48.846;2.322;2022-09-11T16:25:22;3.00;;;3.00;;
62479;SDS011;48526;48.846;2.322;2022-09-11T16:27:48;6.25;;;4.75;;
62479;SDS011;48526;48.846;2.322;2022-09-11T16:30:16;4.25;;;4.25;;
62479;SDS011;48526;48.846;2.322;2022-09-11T16:32:41;4.75;;;3.75;;
62479;SDS011;48526;48.846;2.322;2022-09-11T16:35:07;5.00;;;3.00;;
62479;SDS011;48526;48.846;2.322;2022-09-11T16:37:33;4.25;;;3.00;;
62479;SDS011;48526;48.846;2.322;2022-09-11T16:39:59;4.00;;;3.00;;
62479;SDS011;48526;48.846;2.322;2022-09-11T16:42:29;3.50;;;3.50;;
62479;SDS011;48526;48.846;2.322;2022-09-11T16:44:54;6.25;;;3.75;;
62479;SDS011;48526;48.846;2.322;2022-09-11T16:47:19;5.00;;;3.75;;
62479;SDS011;48526;48.846;2.322;2022-09-11T16:49:46;6.00;;;4.00;;
62479;SDS011;48526;48.846;2.322;2022-09-11T16:52:11;3.25;;;3.25;;
62479;SDS011;48526;48.846;2.322;2022-09-11T16:54:37;4.50;;;4.00;;
62479;SDS011;48526;48.846;2.322;2022-09-11T16:57:06;4.00;;;4.00;;
62479;SDS011;48526;48.846;2.322;2022-09-11T16:59:32;4.00;;;3.25;;
62479;SDS011;48526;48.846;2.322;2022-09-11T17:01:57;7.50;;;6.00;;
62479;SDS011;48526;48.846;2.322;2022-09-11T17:04:23;5.50;;;4.00;;